Time;durP1;ratioP1;P1;durP2;ratioP2;P2;SDS_P1;SDS_P2;PMS_P1;PMS_P2;Temp;Humidity;BMP_temperature;BMP_pressure;BME280_temperature;BME280_humidity;BME280_pressure;Samples;Min_cycle;Max_cycle;Signal;HPM_P1;HPM_P2
2022/03/04 00:00:01;;;;;;;23.42;13.75;;;;;;;0.36;58.87;101417.25;690844;28;1399;-86
2022/03/04 00:00:21;;;;;;;23.50;13.73;;;;;;;0.38;58.52;101420.84;688166;28;1163;-86
2022/03/04 00:00:43;;;;;;;23.93;13.80;;;;;;;0.36;58.79;101418.13;693732;28;838;-86
2022/03/04 00:01:04;;;;;;;24.58;14.07;;;;;;;0.35;58.62;101415.47;690798;28;1147;-86
2022/03/04 00:01:24;;;;;;;25.20;13.93;;;;;;;0.38;58.85;101423.41;691006;28;771;-87
2022/03/04 00:01:46;;;;;;;26.42;14.13;;;;;;;0.33;58.93;101414.41;688158;28;1164;-86
2022/03/04 00:02:07;;;;;;;26.35;13.90;;;;;;;0.28;58.80;101406.34;688217;28;1307;-86
2022/03/04 00:02:27;;;;;;;24.87;13.73;;;;;;;0.36;58.96;101423.28;688256;28;1286;-85
2022/03/04 00:02:48;;;;;;;23.90;13.57;;;;;;;0.41;58.72;101426.19;690804;28;894;-85
2022/03/04 00:03:10;;;;;;;22.50;13.57;;;;;;;0.36;58.81;101420.69;690914;28;1040;-85
2022/03/04 00:03:30;;;;;;;23.70;14.07;;;;;;;0.37;58.85;101421.63;695551;28;1120;-85
2022/03/04 00:03:51;;;;;;;23.45;13.93;;;;;;;0.35;59.12;101418.91;693497;28;1194;-85
2022/03/04 00:04:11;;;;;;;22.65;13.68;;;;;;;0.29;59.10;101407.28;690807;28;1193;-84
2022/03/04 00:04:37;;;;;;;22.10;13.30;;;;;;;0.35;59.17;101420.59;685421;28;1902;-85
2022/03/04 00:04:57;;;;;;;23.16;13.94;;;;;;;0.34;59.11;101419.69;690857;28;1221;-85
2022/03/04 00:05:18;;;;;;;24.97;13.90;;;;;;;0.27;59.19;101413.97;693537;28;1279;-85
2022/03/04 00:05:39;;;;;;;25.63;13.85;;;;;;;0.30;59.18;101427.03;690955;28;888;-85
2022/03/04 00:06:00;;;;;;;24.00;13.48;;;;;;;0.27;59.07;101408.81;693608;28;1068;-84
2022/03/04 00:06:20;;;;;;;23.23;13.50;;;;;;;0.31;59.07;101416.88;693367;28;1103;-85
2022/03/04 00:06:41;;;;;;;22.10;13.27;;;;;;;0.37;59.02;101437.03;693643;28;1224;-85
2022/03/04 00:07:06;;;;;;;23.50;13.65;;;;;;;0.37;59.40;101431.88;693446;28;1236;-85
2022/03/04 00:07:27;;;;;;;23.48;13.58;;;;;;;0.29;59.24;101415.84;693734;28;861;-85
2022/03/04 00:07:47;;;;;;;24.13;13.57;;;;;;;0.27;59.46;101412.25;690731;28;1131;-85
2022/03/04 00:08:08;;;;;;;25.08;14.07;;;;;;;0.24;59.25;101397.50;688241;28;930;-85
2022/03/04 00:08:29;;;;;;;25.33;14.70;;;;;;;0.24;58.95;101399.19;688314;28;865;-85
2022/03/04 00:08:50;;;;;;;24.17;14.48;;;;;;;0.23;59.00;101408.56;685460;28;1086;-85
2022/03/04 00:09:11;;;;;;;22.52;13.70;;;;;;;0.27;59.09;101413.97;693591;28;1415;-84
2022/03/04 00:09:32;;;;;;;21.55;13.00;;;;;;;0.28;59.36;101415.75;693166;28;921;-85
2022/03/04 00:09:53;;;;;;;20.77;13.02;;;;;;;0.24;59.18;101425.75;695122;28;1363;-85
2022/03/04 00:10:13;;;;;;;20.13;12.90;;;;;;;0.18;59.03;101414.97;695811;28;939;-85
2022/03/04 00:10:34;;;;;;;21.95;13.30;;;;;;;0.28;59.36;101426.03;691004;28;724;-85
2022/03/04 00:10:55;;;;;;;24.10;13.90;;;;;;;0.19;59.55;101423.59;690780;28;1220;-85
2022/03/04 00:11:17;;;;;;;24.15;13.38;;;;;;;0.10;59.37;101401.53;690804;28;1098;-85
2022/03/04 00:11:39;;;;;;;24.00;13.32;;;;;;;0.15;59.54;101413.88;696208;28;1130;-85
2022/03/04 00:12:07;;;;;;;23.60;13.10;;;;;;;0.20;59.52;101428.84;696249;28;1205;-85
2022/03/04 00:12:28;;;;;;;22.36;12.64;;;;;;;0.14;59.66;101418.09;693673;28;850;-85
2022/03/04 00:12:49;;;;;;;23.75;13.00;;;;;;;0.16;59.43;101419.09;688034;28;1457;-85
2022/03/04 00:13:09;;;;;;;24.48;13.27;;;;;;;0.11;59.55;101417.84;685556;28;1001;-86
2022/03/04 00:13:31;;;;;;;24.90;14.00;;;;;;;0.09;59.72;101414.25;688127;28;1317;-85
2022/03/04 00:13:52;;;;;;;24.05;13.85;;;;;;;0.10;59.54;101421.16;690744;28;1284;-85
2022/03/04 00:14:13;;;;;;;23.47;13.80;;;;;;;0.09;59.74;101419.38;690436;28;1169;-85
2022/03/04 00:14:33;;;;;;;24.58;14.07;;;;;;;0.07;59.63;101415.78;693681;28;1291;-85
2022/03/04 00:14:54;;;;;;;25.23;13.80;;;;;;;0.09;59.74;101424.50;687679;28;1200;-85
2022/03/04 00:15:15;;;;;;;28.63;14.07;;;;;;;0.06;59.57;101414.00;690907;28;981;-85
2022/03/04 00:15:35;;;;;;;27.08;13.73;;;;;;;0.03;59.57;101404.38;693636;28;1100;-85
2022/03/04 00:15:56;;;;;;;25.90;13.57;;;;;;;0.10;59.84;101416.03;693595;28;970;-85
2022/03/04 00:16:17;;;;;;;21.00;12.95;;;;;;;0.10;59.87;101426.31;693513;28;1382;-85
2022/03/04 00:16:37;;;;;;;21.83;12.73;;;;;;;0.07;59.72;101410.66;696365;28;1329;-85
2022/03/04 00:16:58;;;;;;;22.77;13.00;;;;;;;0.15;59.66;101427.59;693577;28;947;-85
2022/03/04 00:17:19;;;;;;;22.50;12.70;;;;;;;0.08;59.68;101415.03;690851;28;1031;-85
2022/03/04 00:17:39;;;;;;;21.67;12.63;;;;;;;0.10;59.77;101423.72;693630;28;744;-85
2022/03/04 00:18:00;;;;;;;21.95;12.75;;;;;;;0.20;59.79;101427.94;690728;28;1047;-85
2022/03/04 00:18:21;;;;;;;22.92;13.50;;;;;;;0.09;59.55;101419.38;688151;28;1105;-84
2022/03/04 00:18:42;;;;;;;23.57;13.60;;;;;;;0.17;59.65;101433.72;688212;28;782;-84
2022/03/04 00:19:11;;;;;;;23.95;13.68;;;;;;;0.06;59.84;101416.56;687944;28;1294;-85
2022/03/04 00:19:32;;;;;;;24.02;13.20;;;;;;;0.08;59.79;101420.16;688932;28;1238;-85
2022/03/04 00:19:53;;;;;;;24.17;13.38;;;;;;;0.14;59.81;101424.88;690577;28;1294;-85
2022/03/04 00:20:13;;;;;;;26.43;13.90;;;;;;;0.07;59.93;101415.78;690811;28;973;-84
2022/03/04 00:20:35;;;;;;;26.70;13.50;;;;;;;0.15;59.78;101430.16;693587;28;791;-85
2022/03/04 00:20:55;;;;;;;25.92;13.10;;;;;;;0.07;59.94;101418.38;693565;28;1056;-85
2022/03/04 00:21:16;;;;;;;27.27;13.63;;;;;;;0.06;59.88;101419.13;696096;28;1375;-85
2022/03/04 00:21:43;;;;;;;26.33;13.95;;;;;;;0.04;59.91;101408.75;693390;28;1386;-85
2022/03/04 00:22:05;;;;;;;26.20;14.15;;;;;;;0.15;59.87;101437.84;693532;28;1047;-84
2022/03/04 00:22:26;;;;;;;24.83;14.07;;;;;;;0.12;59.92;101428.22;690847;28;832;-85
2022/03/04 00:22:46;;;;;;;22.03;13.77;;;;;;;0.11;59.90;101430.69;693531;28;1289;-85
2022/03/04 00:23:07;;;;;;;22.70;13.60;;;;;;;0.12;60.11;101430.78;690859;28;1179;-85
2022/03/04 00:23:27;;;;;;;22.77;12.88;;;;;;;0.18;59.82;101437.19;693665;28;843;-85
2022/03/04 00:23:48;;;;;;;24.10;12.80;;;;;;;0.09;59.97;101428.00;693501;28;1045;-85
2022/03/04 00:24:10;;;;;;;24.00;13.20;;;;;;;0.07;59.94;101415.78;693586;28;978;-85
2022/03/04 00:24:31;;;;;;;25.13;14.23;;;;;;;0.08;59.53;101417.59;690591;28;2019;-85
2022/03/04 00:24:52;;;;;;;23.35;13.80;;;;;;;0.05;59.68;101423.34;693596;28;975;-85
2022/03/04 00:25:13;;;;;;;22.17;12.90;;;;;;;0.05;59.85;101419.91;693443;28;1204;-85
2022/03/04 00:25:33;;;;;;;22.90;13.25;;;;;;;0.04;60.00;101411.31;695903;28;1348;-85
2022/03/04 00:25:54;;;;;;;25.17;13.63;;;;;;;0.04;60.21;101421.56;693546;28;1106;-85
2022/03/04 00:26:14;;;;;;;27.30;14.30;;;;;;;0.09;59.75;101434.78;693487;28;1272;-85
2022/03/04 00:26:35;;;;;;;25.45;13.88;;;;;;;0.12;60.23;101429.91;690713;28;1328;-85
2022/03/04 00:26:56;;;;;;;25.02;13.98;;;;;;;0.07;60.18;101420.94;693482;28;1259;-85
2022/03/04 00:27:16;;;;;;;24.13;14.00;;;;;;;0.08;59.98;101422.72;693580;28;910;-84
2022/03/04 00:27:37;;;;;;;24.90;14.20;;;;;;;0.19;60.13;101441.56;690837;28;1058;-85
2022/03/04 00:27:58;;;;;;;24.80;13.98;;;;;;;0.10;59.88;101429.78;693462;28;1266;-85
2022/03/04 00:28:18;;;;;;;23.35;13.55;;;;;;;0.08;59.73;101412.44;693580;28;1061;-85
2022/03/04 00:28:39;;;;;;;22.13;12.73;;;;;;;0.08;59.95;101420.16;690862;28;1282;-85
2022/03/04 00:29:00;;;;;;;24.02;13.00;;;;;;;0.14;60.07;101432.59;688170;28;956;-85
2022/03/04 00:29:20;;;;;;;25.38;13.55;;;;;;;0.09;59.99;101424.50;693459;28;1438;-85
2022/03/04 00:29:41;;;;;;;27.38;14.30;;;;;;;0.09;59.87;101424.50;693101;28;788;-85
2022/03/04 00:30:04;;;;;;;26.17;13.82;;;;;;;0.05;59.77;101414.78;696093;28;1273;-85
2022/03/04 00:30:25;;;;;;;24.35;13.60;;;;;;;0.06;59.95;101420.03;696268;28;1276;-85
2022/03/04 00:30:46;;;;;;;22.50;13.05;;;;;;;0.07;59.96;101426.06;693481;28;1340;-85
2022/03/04 00:31:06;;;;;;;24.43;13.53;;;;;;;-0.02;60.06;101411.72;696274;28;984;-85
2022/03/04 00:31:27;;;;;;;24.40;12.93;;;;;;;-0.02;60.33;101415.94;696224;28;1214;-85
2022/03/04 00:31:48;;;;;;;23.77;13.43;;;;;;;0.08;60.22;101435.56;690679;28;1191;-85
2022/03/04 00:32:08;;;;;;;23.40;13.68;;;;;;;-0.03;60.48;101417.63;690843;28;1125;-85
2022/03/04 00:32:39;;;;;;;24.38;14.00;;;;;;;0.02;60.33;101427.34;690870;28;838;-85
2022/03/04 00:32:59;;;;;;;24.83;13.50;;;;;;;0.05;60.44;101438.75;690745;28;1220;-85
2022/03/04 00:33:20;;;;;;;22.75;13.15;;;;;;;-0.05;60.35;101421.75;693589;28;945;-85
2022/03/04 00:33:41;;;;;;;22.43;13.30;;;;;;;0.04;60.37;101446.34;693601;28;826;-85
2022/03/04 00:34:02;;;;;;;25.17;13.53;;;;;;;-0.05;60.21;101416.59;693556;28;1193;-85
2022/03/04 00:34:22;;;;;;;26.75;13.88;;;;;;;0.02;60.30;101442.75;695149;28;1364;-85
2022/03/04 00:34:43;;;;;;;26.87;14.37;;;;;;;-0.01;60.47;101433.16;693484;28;1315;-85
2022/03/04 00:35:05;;;;;;;24.73;14.20;;;;;;;0.05;60.47;101438.75;693299;28;1208;-85
2022/03/04 00:35:26;;;;;;;24.80;14.35;;;;;;;-0.02;60.68;101428.75;690987;28;846;-85
2022/03/04 00:35:46;;;;;;;24.40;13.40;;;;;;;0.01;60.46;101434.16;693474;28;1206;-85
2022/03/04 00:36:07;;;;;;;24.07;13.67;;;;;;;0.03;60.41;101431.75;696283;28;1254;-85
2022/03/04 00:36:28;;;;;;;25.20;13.50;;;;;;;-0.01;60.63;101433.16;693601;28;1022;-85
2022/03/04 00:36:49;;;;;;;25.95;13.50;;;;;;;0.07;60.28;101444.03;693514;28;952;-85
2022/03/04 00:37:10;;;;;;;26.13;13.25;;;;;;;0.06;60.36;101434.53;693446;28;1265;-85
2022/03/04 00:37:30;;;;;;;25.07;13.80;;;;;;;0.06;60.29;101439.66;693595;28;1317;-85
2022/03/04 00:37:51;;;;;;;26.52;14.32;;;;;;;-0.00;60.34;101428.91;690813;28;948;-84
2022/03/04 00:38:11;;;;;;;27.90;14.40;;;;;;;0.06;60.46;101434.53;693610;28;1255;-85
2022/03/04 00:38:32;;;;;;;27.48;14.00;;;;;;;-0.05;60.56;101426.88;698992;28;1219;-85
2022/03/04 00:38:54;;;;;;;25.60;13.50;;;;;;;-0.03;60.52;101425.31;696262;28;964;-85
2022/03/04 00:39:15;;;;;;;25.58;13.35;;;;;;;0.04;60.38;101444.66;693369;28;1280;-85
2022/03/04 00:39:36;;;;;;;25.63;13.60;;;;;;;-0.07;60.76;101428.38;693022;28;1194;-85
2022/03/04 00:39:56;;;;;;;27.15;13.50;;;;;;;-0.04;60.39;101428.66;690593;28;1205;-85
2022/03/04 00:40:17;;;;;;;26.35;13.40;;;;;;;-0.06;60.51;101432.75;690811;28;1093;-85
2022/03/04 00:40:38;;;;;;;26.47;13.40;;;;;;;-0.10;60.79;101430.72;693497;28;1171;-85
2022/03/04 00:40:58;;;;;;;25.42;13.38;;;;;;;-0.11;60.57;101421.22;695351;28;1425;-85
2022/03/04 00:41:21;;;;;;;26.70;13.98;;;;;;;-0.10;60.72;101423.03;693038;28;1058;-85
2022/03/04 00:41:42;;;;;;;27.27;13.82;;;;;;;-0.07;60.52;101433.53;690895;28;826;-85
2022/03/04 00:42:03;;;;;;;26.95;14.02;;;;;;;-0.05;60.81;101442.28;690247;28;1317;-85
2022/03/04 00:42:24;;;;;;;26.80;14.02;;;;;;;-0.13;60.75;101425.34;693523;28;1200;-85
2022/03/04 00:42:45;;;;;;;25.65;13.88;;;;;;;-0.04;60.87;101445.72;693486;28;984;-85
2022/03/04 00:43:05;;;;;;;23.93;13.43;;;;;;;-0.11;60.68;101434.06;693579;28;997;-85
2022/03/04 00:43:26;;;;;;;23.75;13.52;;;;;;;-0.11;61.06;101439.19;696263;28;1243;-85
2022/03/04 00:43:46;;;;;;;24.10;13.77;;;;;;;-0.17;60.77;101428.41;690039;28;1333;-85
2022/03/04 00:44:07;;;;;;;26.17;13.90;;;;;;;-0.16;61.13;101423.44;690882;28;983;-85
2022/03/04 00:44:28;;;;;;;24.90;13.60;;;;;;;-0.14;60.96;101433.78;690757;28;1910;-85
2022/03/04 00:44:48;;;;;;;25.30;14.20;;;;;;;-0.09;60.86;101439.31;689884;28;1219;-85
2022/03/04 00:45:10;;;;;;;25.73;13.80;;;;;;;-0.13;60.80;101443.31;693595;28;1168;-85
2022/03/04 00:45:31;;;;;;;25.40;13.38;;;;;;;-0.11;60.99;101451.13;690755;28;1478;-85
2022/03/04 00:45:51;;;;;;;27.17;13.57;;;;;;;-0.20;60.89;101431.63;690700;28;1280;-84
2022/03/04 00:46:13;;;;;;;26.58;14.23;;;;;;;-0.21;61.10;101431.53;698611;28;1294;-85
2022/03/04 00:46:35;;;;;;;26.58;15.10;;;;;;;-0.21;61.30;101429.84;693527;28;1612;-85
2022/03/04 00:46:55;;;;;;;24.77;14.93;;;;;;;-0.17;61.24;101436.13;696060;28;1295;-85
2022/03/04 00:47:16;;;;;;;24.45;14.38;;;;;;;-0.23;61.28;101422.78;696231;28;1223;-85
2022/03/04 00:47:37;;;;;;;22.85;13.57;;;;;;;-0.12;61.30;101445.09;696323;28;810;-85
2022/03/04 00:47:57;;;;;;;24.15;13.50;;;;;;;-0.13;61.20;101439.84;696295;28;853;-85
2022/03/04 00:48:18;;;;;;;24.63;13.50;;;;;;;-0.14;61.12;101445.75;690707;28;1317;-85
2022/03/04 00:48:39;;;;;;;28.63;13.70;;;;;;;-0.15;61.25;101444.81;693475;28;1144;-85
2022/03/04 00:49:00;;;;;;;26.05;13.15;;;;;;;-0.17;61.12;101443.81;693581;28;825;-85
2022/03/04 00:49:21;;;;;;;24.90;13.60;;;;;;;-0.15;61.20;101439.69;693547;28;1035;-85
2022/03/04 00:49:41;;;;;;;23.03;13.87;;;;;;;-0.25;61.26;101424.31;692922;28;1194;-85
2022/03/04 00:50:03;;;;;;;24.08;14.30;;;;;;;-0.20;61.21;101433.31;693342;28;1345;-85
2022/03/04 00:50:24;;;;;;;24.95;14.30;;;;;;;-0.22;61.41;101427.13;690736;28;1187;-85
2022/03/04 00:50:44;;;;;;;24.33;14.17;;;;;;;-0.23;61.54;101427.91;692630;28;1090;-85
2022/03/04 00:51:05;;;;;;;25.48;14.85;;;;;;;-0.21;61.31;101434.97;690842;28;1067;-85
2022/03/04 00:51:26;;;;;;;25.60;15.38;;;;;;;-0.25;61.53;101432.94;693457;28;1389;-85
2022/03/04 00:51:46;;;;;;;24.75;15.13;;;;;;;-0.18;61.45;101439.47;693280;28;1242;-84
2022/03/04 00:52:07;;;;;;;24.40;15.00;;;;;;;-0.19;61.38;101443.69;692956;28;1181;-85
2022/03/04 00:52:29;;;;;;;24.53;14.53;;;;;;;-0.27;61.25;101428.44;695757;28;1340;-85
2022/03/04 00:52:49;;;;;;;24.70;14.70;;;;;;;-0.20;61.12;101443.56;693433;28;1203;-85
2022/03/04 00:53:10;;;;;;;25.60;14.77;;;;;;;-0.30;61.24;101431.66;696197;28;1245;-85
2022/03/04 00:53:31;;;;;;;27.35;15.07;;;;;;;-0.28;61.06;101434.34;693538;28;907;-85
2022/03/04 00:53:51;;;;;;;26.57;14.90;;;;;;;-0.20;61.44;101452.16;693534;28;1130;-85
2022/03/04 00:54:12;;;;;;;26.83;14.60;;;;;;;-0.28;61.12;101437.78;690690;28;1210;-85
2022/03/04 00:54:33;;;;;;;25.98;14.50;;;;;;;-0.22;61.20;101450.22;690701;28;1203;-85
2022/03/04 00:54:53;;;;;;;27.37;14.90;;;;;;;-0.33;61.34;101437.41;690763;28;965;-85
2022/03/04 00:55:14;;;;;;;28.10;15.40;;;;;;;-0.32;61.46;101426.38;689184;28;1437;-85
2022/03/04 00:55:37;;;;;;;26.75;15.23;;;;;;;-0.32;61.43;101440.91;692306;28;930;-85
2022/03/04 00:55:58;;;;;;;26.50;14.50;;;;;;;-0.34;61.46;101432.16;690617;28;1286;-85
2022/03/04 00:56:19;;;;;;;26.60;14.00;;;;;;;-0.31;61.61;101446.13;690707;28;1390;-85
2022/03/04 00:56:39;;;;;;;25.83;13.65;;;;;;;-0.35;61.49;101441.53;690784;28;1190;-85
2022/03/04 00:57:00;;;;;;;26.58;14.10;;;;;;;-0.38;61.59;101433.56;686489;28;1257;-85
2022/03/04 00:57:21;;;;;;;26.38;14.30;;;;;;;-0.31;61.37;101445.25;685299;28;1365;-85
2022/03/04 00:57:41;;;;;;;27.80;14.47;;;;;;;-0.34;61.01;101437.28;685380;28;1133;-85
2022/03/04 00:58:02;;;;;;;25.42;13.95;;;;;;;-0.29;61.56;101451.41;692533;28;1208;-85
2022/03/04 00:58:23;;;;;;;24.48;13.82;;;;;;;-0.33;61.45;101442.53;696318;28;863;-85
2022/03/04 00:58:44;;;;;;;23.30;13.38;;;;;;;-0.27;61.51;101454.09;693444;28;1147;-85
2022/03/04 00:59:04;;;;;;;22.67;12.93;;;;;;;-0.38;61.95;101436.13;693469;28;1257;-86
2022/03/04 00:59:25;;;;;;;22.13;13.10;;;;;;;-0.30;61.31;101449.59;693456;28;999;-85
2022/03/04 00:59:45;;;;;;;25.10;13.77;;;;;;;-0.37;61.30;101443.06;692952;28;1288;-84
2022/03/04 01:00:07;;;;;;;27.70;14.97;;;;;;;-0.38;61.31;101441.25;693505;28;1383;-85
2022/03/04 01:00:27;;;;;;;27.55;14.98;;;;;;;-0.35;61.42;101446.66;693479;28;814;-85
2022/03/04 01:00:48;;;;;;;26.00;14.57;;;;;;;-0.42;61.59;101436.66;693372;28;1157;-85
2022/03/04 01:01:09;;;;;;;23.17;13.57;;;;;;;-0.41;61.64;101441.00;690635;28;1282;-85
2022/03/04 01:01:30;;;;;;;22.23;13.00;;;;;;;-0.40;61.36;101442.81;693482;28;1191;-85
2022/03/04 01:01:50;;;;;;;21.45;12.75;;;;;;;-0.47;61.71;101433.72;693522;28;1051;-85
2022/03/04 01:02:11;;;;;;;22.70;12.97;;;;;;;-0.45;61.70;101438.97;693566;28;964;-85
2022/03/04 01:02:32;;;;;;;23.05;13.07;;;;;;;-0.41;61.63;101448.72;690869;28;837;-84
2022/03/04 01:02:52;;;;;;;24.42;12.98;;;;;;;-0.41;62.05;101441.00;688104;28;1215;-84
2022/03/04 01:03:13;;;;;;;23.90;13.17;;;;;;;-0.46;61.77;101438.06;693381;28;1206;-84
2022/03/04 01:03:34;;;;;;;22.63;12.90;;;;;;;-0.48;61.67;101434.47;693396;28;1293;-85
2022/03/04 01:03:55;;;;;;;20.65;12.40;;;;;;;-0.41;62.08;101450.34;693491;28;1115;-85
2022/03/04 01:04:15;;;;;;;21.77;12.33;;;;;;;-0.48;61.98;101438.69;690704;28;1153;-85
2022/03/04 01:04:36;;;;;;;25.17;13.00;;;;;;;-0.43;61.88;101451.13;690828;28;1906;-85
2022/03/04 01:04:56;;;;;;;25.53;13.10;;;;;;;-0.52;62.09;101429.84;696251;28;1222;-86
2022/03/04 01:05:17;;;;;;;25.43;13.07;;;;;;;-0.41;62.19;101460.63;693611;28;1108;-85
2022/03/04 01:05:38;;;;;;;25.02;13.02;;;;;;;-0.49;61.92;101442.03;693570;28;990;-85
2022/03/04 01:06:00;;;;;;;24.58;13.60;;;;;;;-0.48;61.96;101443.81;693508;28;1102;-85
2022/03/04 01:06:20;;;;;;;27.10;14.07;;;;;;;-0.54;61.89;101438.19;693454;28;1057;-85
2022/03/04 01:06:41;;;;;;;26.50;14.33;;;;;;;-0.58;62.07;101427.69;693520;28;1250;-85
2022/03/04 01:07:02;;;;;;;26.10;14.10;;;;;;;-0.54;62.13;101438.19;692621;28;1057;-85
2022/03/04 01:07:22;;;;;;;23.98;13.95;;;;;;;-0.48;62.00;101444.75;696130;28;759;-84
2022/03/04 01:07:44;;;;;;;22.33;13.90;;;;;;;-0.46;61.93;101449.97;698971;28;1276;-85
2022/03/04 01:08:05;;;;;;;21.40;13.60;;;;;;;-0.51;62.01;101444.47;693358;28;1176;-85
2022/03/04 01:08:26;;;;;;;21.97;13.47;;;;;;;-0.54;61.94;101440.75;693387;28;1193;-85
2022/03/04 01:08:46;;;;;;;24.05;13.35;;;;;;;-0.61;62.03;101435.13;696164;28;1215;-84
2022/03/04 01:09:07;;;;;;;25.60;13.63;;;;;;;-0.58;62.00;101442.16;698960;28;962;-85
2022/03/04 01:09:28;;;;;;;25.08;13.38;;;;;;;-0.67;61.92;101429.47;693260;28;877;-84
2022/03/04 01:09:48;;;;;;;23.70;13.20;;;;;;;-0.57;62.05;101447.41;692961;28;1160;-85
2022/03/04 01:10:09;;;;;;;24.10;13.32;;;;;;;-0.60;62.31;101431.78;690707;28;948;-85
2022/03/04 01:10:30;;;;;;;26.15;14.05;;;;;;;-0.62;62.33;101435.00;696188;28;1185;-85
2022/03/04 01:10:50;;;;;;;25.92;14.05;;;;;;;-0.55;62.17;101446.66;693350;28;1210;-85
2022/03/04 01:11:11;;;;;;;24.45;13.90;;;;;;;-0.52;62.44;101447.81;693425;28;937;-86
2022/03/04 01:11:32;;;;;;;21.10;12.80;;;;;;;-0.61;62.19;101437.69;690744;28;1458;-85
2022/03/04 01:11:52;;;;;;;24.00;13.02;;;;;;;-0.60;62.09;101442.03;696122;28;1306;-85
2022/03/04 01:12:13;;;;;;;26.98;13.18;;;;;;;-0.63;62.13;101431.50;690698;28;1306;-85
2022/03/04 01:12:33;;;;;;;28.70;13.90;;;;;;;-0.58;62.20;101443.06;693256;28;1361;-85
2022/03/04 01:12:54;;;;;;;25.92;13.30;;;;;;;-0.59;62.27;101446.41;688093;28;831;-85
2022/03/04 01:13:14;;;;;;;23.85;12.98;;;;;;;-0.65;62.25;101438.19;690769;28;934;-85
2022/03/04 01:13:35;;;;;;;23.23;12.40;;;;;;;-0.66;62.39;101433.84;690877;28;736;-85
2022/03/04 01:13:56;;;;;;;23.00;12.65;;;;;;;-0.58;62.30;101444.72;690624;28;1198;-85
2022/03/04 01:14:17;;;;;;;22.55;12.70;;;;;;;-0.69;62.21;101432.66;690653;28;1251;-85
2022/03/04 01:14:37;;;;;;;24.75;13.27;;;;;;;-0.64;62.41;101436.53;693413;28;1315;-85
2022/03/04 01:14:58;;;;;;;27.40;13.38;;;;;;;-0.64;62.42;101447.66;692936;28;1301;-85
2022/03/04 01:15:19;;;;;;;28.10;12.93;;;;;;;-0.66;62.43;101446.66;690653;28;981;-85
2022/03/04 01:15:40;;;;;;;25.67;12.68;;;;;;;-0.63;62.35;101452.03;688077;28;798;-85
2022/03/04 01:16:01;;;;;;;23.10;12.95;;;;;;;-0.66;62.33;101449.22;690585;28;1383;-85
2022/03/04 01:16:21;;;;;;;23.40;13.35;;;;;;;-0.72;62.24;101430.75;690358;28;1356;-85
2022/03/04 01:16:42;;;;;;;24.42;13.65;;;;;;;-0.66;62.35;101441.53;688129;28;751;-85
2022/03/04 01:17:02;;;;;;;25.43;13.73;;;;;;;-0.68;62.23;101447.28;690549;28;1439;-84
2022/03/04 01:17:24;;;;;;;25.42;14.02;;;;;;;-0.72;62.34;101433.31;690720;28;1047;-85
2022/03/04 01:17:46;;;;;;;25.98;13.80;;;;;;;-0.66;62.74;101449.22;693351;28;1237;-85
2022/03/04 01:18:36;;;;;;;23.80;13.45;;;;;;;-0.60;62.44;101457.44;696011;28;1282;-85
2022/03/04 01:18:57;;;;;;;25.40;13.88;;;;;;;-0.71;62.37;101437.66;691629;28;1159;-85
2022/03/04 01:19:18;;;;;;;25.20;13.80;;;;;;;-0.71;62.34;101441.13;693231;28;1084;-85
2022/03/04 01:19:38;;;;;;;24.83;13.68;;;;;;;-0.69;62.73;101445.50;694911;28;1455;-85
2022/03/04 01:19:59;;;;;;;22.95;13.30;;;;;;;-0.74;62.78;101439.97;691851;28;1173;-85
2022/03/04 01:20:19;;;;;;;23.77;13.50;;;;;;;-0.75;62.52;101443.31;690690;28;1092;-85
2022/03/04 01:20:40;;;;;;;22.52;13.15;;;;;;;-0.72;62.43;101448.69;688036;28;1059;-85
2022/03/04 01:21:01;;;;;;;23.42;13.00;;;;;;;-0.77;62.51;101437.13;689508;28;1219;-85
2022/03/04 01:21:21;;;;;;;22.70;12.70;;;;;;;-0.74;62.79;101450.22;690702;28;1146;-85
2022/03/04 01:21:42;;;;;;;23.30;12.90;;;;;;;-0.81;62.63;101440.22;693421;28;1193;-85
2022/03/04 01:22:03;;;;;;;24.23;13.10;;;;;;;-0.76;62.78;101451.78;690519;28;1169;-85
2022/03/04 01:22:23;;;;;;;24.83;13.52;;;;;;;-0.78;62.92;101438.81;692712;28;1209;-85
2022/03/04 01:22:44;;;;;;;26.10;14.07;;;;;;;-0.78;62.69;101445.59;693406;28;1213;-85
2022/03/04 01:23:04;;;;;;;25.00;13.97;;;;;;;-0.69;62.59;101453.19;693564;28;1156;-85
2022/03/04 01:23:25;;;;;;;25.05;14.15;;;;;;;-0.72;62.65;101441.00;693016;28;1359;-85
2022/03/04 01:23:46;;;;;;;24.30;13.90;;;;;;;-0.63;62.41;101459.72;691453;28;1673;-85
2022/03/04 01:24:07;;;;;;;24.73;13.90;;;;;;;-0.69;62.71;101446.41;693070;28;1278;-85
2022/03/04 01:24:27;;;;;;;23.77;13.15;;;;;;;-0.69;62.47;101446.41;693253;28;1910;-85
2022/03/04 01:24:48;;;;;;;24.20;13.30;;;;;;;-0.68;62.54;101449.84;693376;28;1033;-85
2022/03/04 01:25:10;;;;;;;23.85;13.27;;;;;;;-0.74;62.53;101445.09;693527;28;872;-85
2022/03/04 01:25:31;;;;;;;25.95;13.80;;;;;;;-0.66;62.66;101463.69;693565;28;783;-86
2022/03/04 01:25:52;;;;;;;25.67;13.98;;;;;;;-0.82;62.70;101446.13;693331;28;1464;-85
2022/03/04 01:26:13;;;;;;;26.35;13.60;;;;;;;-0.86;63.00;101442.41;693367;28;1161;-84
2022/03/04 01:26:34;;;;;;;24.08;13.15;;;;;;;-0.88;63.02;101449.94;690809;28;907;-85
2022/03/04 01:26:55;;;;;;;23.03;12.83;;;;;;;-0.86;62.98;101447.53;696155;28;1169;-85
2022/03/04 01:27:15;;;;;;;22.33;12.53;;;;;;;-0.85;62.81;101439.97;696037;28;1255;-85
2022/03/04 01:27:37;;;;;;;22.88;13.00;;;;;;;-0.82;63.10;101438.44;693392;28;1386;-85
2022/03/04 01:27:57;;;;;;;24.35;13.80;;;;;;;-0.74;62.87;101453.66;693334;28;1340;-85
2022/03/04 01:28:20;;;;;;;23.30;13.77;;;;;;;-0.73;62.78;101449.47;693422;28;1183;-85
2022/03/04 01:28:41;;;;;;;21.75;13.38;;;;;;;-0.74;62.85;101455.34;693440;28;1204;-85
2022/03/04 01:29:02;;;;;;;21.13;12.93;;;;;;;-0.79;62.71;101447.28;696146;28;1101;-85
2022/03/04 01:29:22;;;;;;;22.38;12.65;;;;;;;-0.72;62.87;101448.69;696122;28;1191;-84
2022/03/04 01:29:43;;;;;;;24.57;13.07;;;;;;;-0.73;62.79;101449.47;692970;28;747;-85
2022/03/04 01:30:05;;;;;;;24.98;13.10;;;;;;;-0.76;62.68;101446.66;698730;28;1176;-85
2022/03/04 01:30:26;;;;;;;24.98;13.55;;;;;;;-0.80;62.98;101439.44;696136;28;803;-85
2022/03/04 01:30:48;;;;;;;24.35;13.02;;;;;;;-0.85;63.02;101447.66;701560;28;1194;-85
2022/03/04 01:31:12;;;;;;;25.40;13.30;;;;;;;-0.88;62.99;101446.50;698904;28;1236;-85
2022/03/04 01:31:33;;;;;;;25.55;13.43;;;;;;;-0.93;62.91;101438.41;693326;28;1364;-85
2022/03/04 01:31:54;;;;;;;24.55;13.50;;;;;;;-0.90;63.16;101445.44;693391;28;1188;-85
2022/03/04 01:32:14;;;;;;;24.33;13.70;;;;;;;-0.92;63.10;101441.88;696127;28;1102;-85
2022/03/04 01:32:36;;;;;;;24.20;13.40;;;;;;;-0.94;63.01;101439.16;698972;28;1345;-85
2022/03/04 01:32:56;;;;;;;24.58;13.77;;;;;;;-0.99;63.50;101432.78;698695;28;1362;-85
2022/03/04 01:33:17;;;;;;;21.57;13.20;;;;;;;-0.94;63.18;101451.09;698479;28;1074;-85
2022/03/04 01:33:38;;;;;;;22.38;12.68;;;;;;;-0.87;62.84;101438.03;690729;28;1173;-85
2022/03/04 01:34:00;;;;;;;23.95;12.88;;;;;;;-0.88;63.12;101447.38;693378;28;1056;-85
2022/03/04 01:34:20;;;;;;;26.50;12.77;;;;;;;-0.97;63.13;101436.34;690620;28;1202;-85
2022/03/04 01:34:41;;;;;;;25.97;13.07;;;;;;;-0.87;63.28;101464.56;693442;28;784;-85
2022/03/04 01:35:03;;;;;;;22.83;12.40;;;;;;;-0.96;62.89;101433.03;690511;28;1281;-85
2022/03/04 01:35:23;;;;;;;22.15;13.32;;;;;;;-0.86;63.14;101445.84;690661;28;1117;-85
2022/03/04 01:35:44;;;;;;;22.00;13.10;;;;;;;-0.84;62.84;101440.84;690693;28;1186;-84
2022/03/04 01:36:05;;;;;;;22.38;13.63;;;;;;;-0.79;62.74;101446.38;693309;28;1100;-85
2022/03/04 01:36:30;;;;;;;22.20;13.02;;;;;;;-0.77;62.88;101452.50;693490;28;780;-86
2022/03/04 01:36:50;;;;;;;22.05;12.77;;;;;;;-0.82;62.72;101444.44;696015;28;1203;-85
2022/03/04 01:37:11;;;;;;;23.57;12.87;;;;;;;-0.87;62.93;101428.66;696136;28;1035;-85
2022/03/04 01:37:32;;;;;;;26.70;13.60;;;;;;;-0.89;63.01;101445.59;696252;28;732;-85
2022/03/04 01:37:53;;;;;;;27.27;13.95;;;;;;;-0.95;63.06;101439.94;696172;28;989;-84
2022/03/04 01:38:13;;;;;;;27.17;13.95;;;;;;;-0.92;62.81;101454.69;687836;28;1191;-84
2022/03/04 01:38:34;;;;;;;23.65;13.40;;;;;;;-1.02;63.21;101435.06;693336;28;1306;-85